Meteorología y climatología de Navarra
Datos de la estación - Meteo Navarra

Estación de Estella GN

Altitud 486 m.


Datos desde el 26/03/2020 hasta el 27/03/2020 en horario solar
Los datos son PROVISIONALES

Anterior Página 1 de 1 Siguiente Descargar: Formato para Excel 2000 o superior   Formato csv   Formato para OpenOffice Calc
Fecha Temperatura Humedad relativa Radiación global Insolación Precipitación Vel. viento 10 m Vel. viento 10 m Dir. viento 10 m
ºC % W/m² s l/m² m/s km/h º
26/03/2020 0:00 3.2 77 0.0 0 0.0 2.4 8.5 299
26/03/2020 0:10 3.5 76 0.0 0 0.0 2.0 7.2 300
26/03/2020 0:20 3.4 78 0.0 0 0.0 2.0 7.0 306
26/03/2020 0:30 3.9 78 0.0 0 0.0 1.9 6.9 284
26/03/2020 0:40 4.7 75 0.0 0 0.0 1.9 6.7 273
26/03/2020 0:50 5.0 75 0.0 0 0.0 2.1 7.4 255
26/03/2020 1:00 5.2 75 0.0 0 0.0 1.0 3.6 315
26/03/2020 1:10 5.4 75 0.0 0 0.0 1.7 6.0 277
26/03/2020 1:20 5.5 75 0.0 0 0.0 1.4 4.9 286
26/03/2020 1:30 5.5 76 0.0 0 0.0 0.9 3.3 326
26/03/2020 1:40 5.2 77 0.0 0 0.0 0.9 3.3 309
26/03/2020 1:50 5.1 78 0.0 0 0.0 0.5 1.9 3
26/03/2020 2:00 5.2 79 0.0 0 0.0 1.0 3.7 347
26/03/2020 2:10 5.2 78 0.0 0 0.0 0.6 2.1 238
26/03/2020 2:20 5.1 81 0.0 0 0.0 1.0 3.7 302
26/03/2020 2:30 5.8 80 0.0 0 0.0 1.4 5.0 356
26/03/2020 2:40 6.1 77 0.0 0 0.0 1.5 5.4 351
26/03/2020 2:50 6.2 77 0.0 0 0.0 0.8 2.7 348
26/03/2020 3:00 6.2 79 0.0 0 0.0 0.8 2.9 287
26/03/2020 3:10 6.2 80 0.0 0 0.0 1.3 4.8 278
26/03/2020 3:20 6.3 78 0.0 0 0.0 1.1 4.0 263
26/03/2020 3:30 6.4 77 0.0 0 0.0 1.8 6.6 267
26/03/2020 3:40 6.3 78 0.0 0 0.1 1.7 6.1 261
26/03/2020 3:50 5.9 86 0.0 0 0.0 1.6 5.6 246
26/03/2020 4:00 5.6 89 0.0 0 0.0 0.9 3.1 282
26/03/2020 4:10 5.6 88 0.0 0 0.0 0.9 3.3 265
26/03/2020 4:20 5.7 86 0.0 0 0.0 1.3 4.5 261
26/03/2020 4:30 5.8 83 0.0 0 0.0 1.3 4.7 249
26/03/2020 4:40 6.0 81 0.0 0 0.0 1.4 5.1 259
26/03/2020 4:50 6.1 80 0.0 0 0.0 1.2 4.2 262
26/03/2020 5:00 6.6 75 0.0 0 0.0 2.4 8.7 304
26/03/2020 5:10 6.7 71 0.0 0 0.0 2.1 7.4 314
26/03/2020 5:20 6.4 72 0.0 0 0.0 1.5 5.5 290
26/03/2020 5:30 6.5 70 0.0 0 0.0 2.1 7.5 320
26/03/2020 5:40 6.7 70 0.0 0 0.0 1.6 5.6 315
26/03/2020 5:50 6.7 70 0.0 0 0.0 1.6 5.8 328
26/03/2020 6:00 6.8 68 0.0 0 0.0 2.1 7.5 310
26/03/2020 6:10 6.8 68 0.0 0 0.0 1.5 5.5 316
26/03/2020 6:20 6.9 67 0.0 0 0.0 1.7 6.3 341
26/03/2020 6:30 6.9 66 0.2 0 0.0 2.3 8.3 325
26/03/2020 6:40 6.9 65 9.4 0 0.0 2.1 7.6 347
26/03/2020 6:50 7.0 65 11.9 0 0.0 2.1 7.4 331
26/03/2020 7:00 7.0 64 10.6 0 0.0 2.1 7.7 339
26/03/2020 7:10 7.1 63 39.4 0 0.0 2.3 8.2 334
26/03/2020 7:20 7.2 62 47.6 6 0.0 2.9 10.4 326
26/03/2020 7:30 7.4 61 109.5 160 0.0 2.0 7.2 328
26/03/2020 7:40 7.4 60 58.1 46 0.0 2.2 8.1 308
26/03/2020 7:50 7.3 59 81.4 16 0.0 2.0 7.1 337
26/03/2020 8:00 7.5 59 101.3 68 0.0 2.5 8.8 326
26/03/2020 8:10 7.7 57 239.2 316 0.0 3.2 11.6 333
26/03/2020 8:20 8.5 52 236.1 302 0.0 2.8 9.9 326
26/03/2020 8:30 8.2 53 151.0 52 0.0 2.9 10.4 316
26/03/2020 8:40 8.0 53 383.5 386 0.0 2.6 9.2 330
26/03/2020 8:50 8.6 52 172.6 118 0.0 2.8 10.1 328
26/03/2020 9:00 8.3 54 323.3 266 0.0 2.2 7.8 295
26/03/2020 9:10 7.9 53 46.7 0 0.0 2.9 10.3 324
26/03/2020 9:20 7.6 54 146.8 6 0.0 2.2 7.9 334
26/03/2020 9:30 7.8 53 268.9 150 0.0 3.1 11.3 340
26/03/2020 9:40 8.9 49 548.5 426 0.0 1.9 6.9 339
26/03/2020 9:50 9.1 46 488.9 302 0.0 2.8 10.0 326
26/03/2020 10:00 8.8 48 545.6 348 0.0 3.1 11.2 308
26/03/2020 10:10 9.5 46 799.4 600 0.0 3.0 10.9 336
26/03/2020 10:20 9.7 43 766.5 594 0.0 2.6 9.4 328
26/03/2020 10:30 9.8 42 781.3 600 0.0 3.0 10.9 331
26/03/2020 10:40 10.0 42 813.0 600 0.0 3.2 11.5 336
26/03/2020 10:50 10.3 42 838.0 600 0.0 2.4 8.5 339
26/03/2020 11:00 10.7 42 863.0 600 0.0 3.0 10.7 341
26/03/2020 11:10 10.5 42 904.0 600 0.0 2.6 9.5 316
26/03/2020 11:20 10.7 42 909.0 600 0.0 3.0 10.8 307
26/03/2020 11:30 10.7 42 916.0 600 0.0 3.1 11.0 335
26/03/2020 11:40 10.7 41 909.0 600 0.0 3.4 12.3 330
26/03/2020 11:50 10.7 40 883.0 600 0.0 2.8 10.2 331
26/03/2020 12:00 10.6 41 867.0 600 0.0 2.6 9.2 290
26/03/2020 12:10 10.1 41 868.0 600 0.0 3.2 11.6 288
26/03/2020 12:20 10.0 43 870.0 600 0.0 2.9 10.6 285
26/03/2020 12:30 10.4 41 871.0 600 0.0 3.2 11.3 319
26/03/2020 12:40 10.4 39 866.0 600 0.0 3.0 10.9 304
26/03/2020 12:50 10.7 40 859.0 600 0.0 3.0 10.8 298
26/03/2020 13:00 11.1 39 853.0 600 0.0 2.5 9.0 314
26/03/2020 13:10 10.9 37 844.0 600 0.0 2.7 9.9 317
26/03/2020 13:20 10.9 36 827.0 600 0.0 3.0 10.9 303
26/03/2020 13:30 10.8 36 815.0 600 0.0 2.9 10.4 312
26/03/2020 13:40 11.2 38 799.8 600 0.0 2.6 9.4 309
26/03/2020 13:50 10.9 37 803.0 600 0.0 3.1 11.0 294
26/03/2020 14:00 11.2 37 798.2 600 0.0 2.4 8.6 313
26/03/2020 14:10 11.2 36 774.0 600 0.0 2.4 8.7 287
26/03/2020 14:20 11.2 37 761.9 600 0.0 2.6 9.4 274
26/03/2020 14:30 11.4 37 737.2 600 0.0 1.9 7.0 288
26/03/2020 14:40 11.2 37 669.8 540 0.0 2.6 9.4 299
26/03/2020 14:50 10.7 37 586.2 490 0.0 2.5 8.9 310
26/03/2020 15:00 10.2 38 337.5 204 0.0 2.8 10.2 285
26/03/2020 15:10 9.7 40 503.4 404 0.0 2.4 8.7 271
26/03/2020 15:20 10.4 38 596.9 600 0.0 3.0 10.7 267
26/03/2020 15:30 10.4 37 551.6 600 0.0 3.1 11.0 276
26/03/2020 15:40 10.2 36 519.0 600 0.0 2.6 9.4 274
26/03/2020 15:50 10.1 37 494.3 600 0.0 2.9 10.5 273
26/03/2020 16:00 10.1 38 458.9 600 0.0 2.5 9.0 305
26/03/2020 16:10 10.0 37 419.7 600 0.0 2.4 8.8 323
26/03/2020 16:20 10.0 38 395.9 600 0.0 1.8 6.6 312
26/03/2020 16:30 9.6 38 370.1 600 0.0 2.5 9.0 348
26/03/2020 16:40 9.5 38 293.8 522 0.0 2.1 7.5 16
26/03/2020 16:50 8.9 40 211.5 436 0.0 2.8 10.0 340
26/03/2020 17:00 8.4 40 135.3 236 0.0 2.0 7.3 343
26/03/2020 17:10 8.2 41 150.7 358 0.0 2.0 7.2 327
26/03/2020 17:20 8.5 40 185.1 594 0.0 1.7 6.0 338
26/03/2020 17:30 8.2 42 141.7 570 0.0 1.9 6.8 336
26/03/2020 17:40 7.8 44 67.0 198 0.0 2.3 8.1 345
26/03/2020 17:50 7.0 47 33.5 0 0.0 1.8 6.5 343
26/03/2020 18:00 6.8 48 36.7 8 0.0 1.5 5.3 17
26/03/2020 18:10 6.4 49 23.3 16 0.0 1.2 4.5 5
26/03/2020 18:20 6.2 50 0.5 0 0.0 1.7 6.0 357
26/03/2020 18:30 5.9 51 0.0 0 0.0 1.1 4.1 357
26/03/2020 18:40 5.6 52 0.0 0 0.0 2.1 7.4 4
26/03/2020 18:50 5.5 53 0.0 0 0.0 1.8 6.3 6
26/03/2020 19:00 5.4 53 0.0 0 0.0 1.4 5.0 17
26/03/2020 19:10 5.2 54 0.0 0 0.0 1.1 3.8 350
26/03/2020 19:20 4.9 54 0.0 0 0.0 1.0 3.4 12
26/03/2020 19:30 4.7 56 0.0 0 0.0 1.5 5.5 16
26/03/2020 19:40 4.5 57 0.0 0 0.0 1.2 4.2 25
26/03/2020 19:50 4.2 58 0.0 0 0.0 0.7 2.5 46
26/03/2020 20:00 3.6 61 0.0 0 0.0 0.8 2.8 35
26/03/2020 20:10 4.0 58 0.0 0 0.0 0.9 3.4 2
26/03/2020 20:20 3.9 58 0.0 0 0.0 1.2 4.4 34
26/03/2020 20:30 4.1 57 0.0 0 0.0 1.1 3.8 39
26/03/2020 20:40 3.8 59 0.0 0 0.0 0.8 2.9 37
26/03/2020 20:50 3.6 61 0.0 0 0.0 1.2 4.4 20
26/03/2020 21:00 3.4 61 0.0 0 0.0 0.8 3.0 56
26/03/2020 21:10 3.4 61 0.0 0 0.0 1.6 5.8 42
26/03/2020 21:20 2.6 65 0.0 0 0.0 1.6 5.6 58
26/03/2020 21:30 2.6 64 0.0 0 0.0 1.8 6.4 21
26/03/2020 21:40 3.1 63 0.0 0 0.0 1.3 4.6 30
26/03/2020 21:50 2.9 64 0.0 0 0.0 1.4 4.9 18
26/03/2020 22:00 2.9 64 0.0 0 0.0 1.3 4.6 24
26/03/2020 22:10 2.8 65 0.0 0 0.0 0.9 3.2 14
26/03/2020 22:20 2.4 68 0.0 0 0.0 0.8 3.0 350
26/03/2020 22:30 1.9 70 0.0 0 0.0 0.3 0.9 28
26/03/2020 22:40 1.7 72 0.0 0 0.0 0.4 1.3 2
26/03/2020 22:50 1.7 72 0.0 0 0.0 1.1 3.9 357
26/03/2020 23:00 2.0 70 0.0 0 0.0 0.8 2.8 17
26/03/2020 23:10 2.0 70 0.0 0 0.0 0.9 3.4 353
26/03/2020 23:20 1.8 71 0.0 0 0.0 1.0 3.4 339
26/03/2020 23:30 1.8 70 0.0 0 0.0 1.0 3.7 11
26/03/2020 23:40 2.2 68 0.0 0 0.0 1.0 3.6 10
26/03/2020 23:50 1.4 72 0.0 0 0.0 0.8 3.0 327
Anterior Página 1 de 1 Siguiente

NOTA: Tipo de datos según el color:
   - Valores diarios o 10 minutos correctos
   - Valores diarios calculados a partir de un número de datos 10 minutos menor que 144 y mayor que 120, o de un número de datos semihorarios menor que 48 y mayor que 40 (caso de las estaciones de INTIA y del Ministerio)
   - Valores diez minutos estimados


Contacto        Enlaces        Aviso legal